Time;durP1;ratioP1;P1;durP2;ratioP2;P2;SDS_P1;SDS_P2;PMS_P1;PMS_P2;Temp;Humidity;BMP_temperature;BMP_pressure;BME280_temperature;BME280_humidity;BME280_pressure;Samples;Min_cycle;Max_cycle;Signal;HPM_P1;HPM_P2
2021/01/21 00:01:48;;;;;;;7.03;1.75;;;8.90;84.30;;;;;;4947391;28;81038;-71
2021/01/21 00:04:14;;;;;;;8.25;2.28;;;8.90;84.30;;;;;;4947614;28;80640;-73
2021/01/21 00:06:40;;;;;;;5.90;2.20;;;8.90;84.30;;;;;;4929641;28;79910;-66
2021/01/21 00:09:07;;;;;;;5.97;1.70;;;8.90;84.10;;;;;;4950159;28;80578;-66
2021/01/21 00:11:32;;;;;;;5.30;1.42;;;8.90;84.10;;;;;;4932651;28;82426;-66
2021/01/21 00:13:58;;;;;;;8.60;1.55;;;8.90;84.10;;;;;;4932216;28;82566;-63
2021/01/21 00:16:24;;;;;;;3.88;1.33;;;8.90;84.10;;;;;;4950893;28;79798;-64
2021/01/21 00:18:50;;;;;;;7.70;1.23;;;8.90;84.20;;;;;;4932994;28;80690;-66
2021/01/21 00:21:16;;;;;;;7.78;1.70;;;8.80;84.30;;;;;;4933273;28;82648;-70
2021/01/21 00:23:41;;;;;;;6.90;1.65;;;8.80;84.40;;;;;;4932721;28;81632;-68
2021/01/21 00:26:07;;;;;;;7.63;2.00;;;8.80;84.40;;;;;;4932874;28;80890;-65
2021/01/21 00:28:33;;;;;;;5.65;1.17;;;8.80;84.30;;;;;;4950991;28;79745;-71
2021/01/21 00:30:59;;;;;;;7.82;1.55;;;8.70;84.30;;;;;;4932596;28;80804;-70
2021/01/21 00:33:24;;;;;;;7.90;1.80;;;8.70;84.30;;;;;;4932772;28;80748;-73
2021/01/21 00:35:50;;;;;;;8.70;1.35;;;8.70;84.30;;;;;;4950581;28;80492;-66
2021/01/21 00:38:16;;;;;;;10.75;2.00;;;8.70;84.20;;;;;;4933069;28;80460;-70
2021/01/21 00:40:42;;;;;;;8.18;1.63;;;8.60;84.30;;;;;;4932436;28;82379;-68
2021/01/21 00:43:08;;;;;;;5.55;1.25;;;8.60;84.20;;;;;;4932359;28;80803;-68
2021/01/21 00:45:33;;;;;;;10.32;1.40;;;8.60;84.10;;;;;;4932247;28;80684;-69
2021/01/21 00:47:59;;;;;;;13.30;1.42;;;8.60;84.10;;;;;;4950003;28;80219;-67
2021/01/21 00:50:25;;;;;;;7.00;1.73;;;8.60;84.00;;;;;;4932427;28;81728;-68
2021/01/21 00:52:51;;;;;;;6.82;1.75;;;8.50;84.00;;;;;;4950305;28;80224;-76
2021/01/21 00:55:16;;;;;;;5.35;2.33;;;8.50;84.10;;;;;;4950325;28;80850;-68
2021/01/21 00:57:42;;;;;;;5.30;2.00;;;8.50;84.20;;;;;;4933253;28;80876;-74
2021/01/21 01:00:10;;;;;;;4.07;1.63;;;8.40;84.30;;;;;;4931904;28;82987;-73
2021/01/21 01:02:36;;;;;;;5.90;1.70;;;8.50;84.50;;;;;;4932433;28;80697;-72
2021/01/21 01:05:04;;;;;;;6.22;1.55;;;8.50;84.50;;;;;;4950327;28;80400;-65
2021/01/21 01:07:30;;;;;;;4.30;1.70;;;8.50;84.50;;;;;;4953414;28;79774;-65
2021/01/21 01:09:56;;;;;;;5.45;1.90;;;8.60;84.60;;;;;;4953016;28;80562;-71
2021/01/21 01:12:22;;;;;;;6.22;1.48;;;8.60;84.90;;;;;;4933132;28;80398;-72
2021/01/21 01:14:48;;;;;;;7.45;1.73;;;8.60;84.60;;;;;;4950254;28;80477;-73
2021/01/21 01:17:13;;;;;;;4.55;1.73;;;8.70;84.60;;;;;;4931736;28;80332;-70
2021/01/21 01:19:39;;;;;;;6.30;1.52;;;8.80;84.50;;;;;;4949328;28;80616;-70
2021/01/21 01:22:05;;;;;;;7.40;1.45;;;8.80;84.50;;;;;;4931538;28;80543;-66
2021/01/21 01:24:31;;;;;;;5.68;1.83;;;8.80;84.70;;;;;;4931671;28;79832;-73
2021/01/21 01:26:56;;;;;;;7.85;2.13;;;8.80;84.70;;;;;;4949294;28;80920;-73
2021/01/21 01:29:22;;;;;;;6.13;2.03;;;8.90;84.90;;;;;;4949332;28;80359;-74
2021/01/21 01:31:48;;;;;;;5.65;1.40;;;8.90;84.90;;;;;;4931888;28;83361;-78
2021/01/21 01:34:14;;;;;;;7.05;2.08;;;8.90;84.80;;;;;;4931284;28;80790;-80
2021/01/21 01:36:40;;;;;;;5.03;1.25;;;8.90;84.90;;;;;;4931697;28;80277;-79
2021/01/21 01:39:05;;;;;;;5.82;1.80;;;8.90;85.00;;;;;;4931552;28;82582;-77
2021/01/21 01:41:31;;;;;;;8.82;1.65;;;8.90;85.10;;;;;;4949257;28;80940;-81
2021/01/21 01:43:57;;;;;;;5.57;1.00;;;8.90;85.20;;;;;;4931399;28;82556;-76
2021/01/21 01:46:26;;;;;;;6.43;1.27;;;8.80;85.20;;;;;;4949189;28;80696;-80
2021/01/21 01:48:57;;;;;;;10.60;2.13;;;8.80;85.30;;;;;;4931135;28;82847;-68
2021/01/21 01:51:23;;;;;;;7.30;1.75;;;8.70;85.60;;;;;;4930713;28;81218;-67
2021/01/21 01:53:48;;;;;;;3.63;0.95;;;8.70;85.50;;;;;;4949021;28;80697;-67
2021/01/21 01:56:14;;;;;;;5.07;2.15;;;8.80;85.50;;;;;;4930941;28;80457;-65
2021/01/21 01:58:40;;;;;;;6.70;2.20;;;8.90;85.40;;;;;;4949195;28;80885;-69
2021/01/21 02:01:06;;;;;;;5.35;1.30;;;8.90;85.40;;;;;;4931044;28;82897;-71
2021/01/21 02:03:32;;;;;;;7.47;1.30;;;8.90;85.40;;;;;;4931388;28;83211;-72
2021/01/21 02:05:58;;;;;;;5.75;1.88;;;8.90;85.30;;;;;;4949267;28;80704;-66
2021/01/21 02:08:25;;;;;;;6.15;1.50;;;8.90;85.20;;;;;;4931390;28;81143;-69
2021/01/21 02:10:55;;;;;;;7.60;1.52;;;9.00;85.20;;;;;;4949272;28;80346;-66
2021/01/21 02:13:36;;;;;;;8.27;2.08;;;9.10;85.30;;;;;;4932394;28;82201;-70
2021/01/21 02:16:36;;;;;;;6.03;1.45;;;9.10;85.20;;;;;;4931676;28;80143;-84
2021/01/21 02:19:26;;;;;;;11.15;2.58;;;9.10;85.10;;;;;;4948981;28;81031;-73
2021/01/21 02:22:19;;;;;;;5.75;2.08;;;9.10;84.90;;;;;;4930981;28;82767;-68
2021/01/21 02:25:08;;;;;;;8.45;1.50;;;9.10;84.80;;;;;;4931005;28;82046;-71
2021/01/21 02:28:02;;;;;;;6.20;1.73;;;9.00;84.80;;;;;;4930868;28;81913;-69
2021/01/21 02:30:36;;;;;;;5.72;1.63;;;9.00;84.70;;;;;;4908770;28;81375;-64
2021/01/21 02:33:04;;;;;;;;;;;8.90;84.90;;;;;;4948976;28;80263;-67
2021/01/21 02:35:31;;;;;;;5.55;1.48;;;8.90;84.70;;;;;;4935550;28;78256;-63
2021/01/21 02:38:00;;;;;;;3.22;1.60;;;8.90;85.00;;;;;;4930507;28;79971;-66
2021/01/21 02:40:26;;;;;;;9.43;1.38;;;8.80;85.00;;;;;;4948461;28;80647;-65
2021/01/21 02:42:52;;;;;;;3.60;1.48;;;8.80;84.90;;;;;;4930668;28;80490;-65
2021/01/21 02:45:18;;;;;;;5.25;1.50;;;8.80;84.90;;;;;;4949323;28;81005;-72
2021/01/21 02:47:44;;;;;;;2.83;1.08;;;8.80;84.90;;;;;;4931253;28;80396;-75
2021/01/21 02:50:11;;;;;;;5.50;0.93;;;8.80;84.90;;;;;;4948779;28;79898;-74
2021/01/21 02:52:56;;;;;;;4.40;1.20;;;8.80;85.00;;;;;;4948483;28;80017;-75
2021/01/21 02:55:25;;;;;;;4.85;1.40;;;8.80;85.00;;;;;;4930605;28;81142;-71
2021/01/21 02:58:11;;;;;;;7.57;1.30;;;8.80;85.10;;;;;;4930701;28;79871;-77
2021/01/21 03:00:39;;;;;;;3.22;0.95;;;8.80;85.10;;;;;;4933833;28;80847;-70
2021/01/21 03:03:13;;;;;;;7.82;1.92;;;8.70;85.10;;;;;;4930828;28;82795;-69
2021/01/21 03:05:40;;;;;;;4.72;1.35;;;8.80;85.20;;;;;;4930479;28;82577;-78
2021/01/21 03:08:07;;;;;;;5.35;1.20;;;8.70;85.30;;;;;;4948375;28;80800;-74
2021/01/21 03:10:33;;;;;;;9.88;1.90;;;8.70;85.30;;;;;;4929960;28;81628;-70
2021/01/21 03:12:59;;;;;;;7.57;1.33;;;8.80;85.20;;;;;;4948163;28;79830;-78
2021/01/21 03:15:26;;;;;;;5.88;1.02;;;8.80;85.30;;;;;;4930015;28;80962;-73
2021/01/21 03:17:52;;;;;;;6.20;1.42;;;8.80;85.20;;;;;;4929405;28;82846;-75
2021/01/21 03:20:18;;;;;;;5.88;1.40;;;8.80;85.10;;;;;;4930089;28;82909;-74
2021/01/21 03:22:45;;;;;;;5.97;1.63;;;8.80;85.10;;;;;;4947649;28;80201;-65
2021/01/21 03:25:11;;;;;;;8.40;1.50;;;8.90;85.10;;;;;;4929871;28;83527;-73
2021/01/21 03:27:37;;;;;;;5.65;1.38;;;8.90;85.10;;;;;;4947605;28;80376;-70
2021/01/21 03:30:05;;;;;;;7.20;1.33;;;8.90;85.00;;;;;;4948026;28;79920;-67
2021/01/21 03:32:30;;;;;;;3.47;1.20;;;8.90;85.10;;;;;;4948262;28;80073;-74
2021/01/21 03:34:56;;;;;;;5.43;1.90;;;8.90;85.10;;;;;;4930800;28;80627;-78
2021/01/21 03:37:22;;;;;;;7.85;2.05;;;8.90;85.00;;;;;;4930341;28;81607;-68
2021/01/21 03:39:48;;;;;;;6.40;1.48;;;8.90;85.10;;;;;;4930993;28;82963;-80
2021/01/21 03:42:13;;;;;;;8.40;1.90;;;8.90;85.20;;;;;;4950026;28;79807;-76
2021/01/21 03:44:39;;;;;;;5.13;1.17;;;8.90;85.20;;;;;;4951820;28;79679;-80
2021/01/21 03:47:05;;;;;;;7.80;1.92;;;8.90;85.10;;;;;;4951707;28;80692;-80
2021/01/21 03:49:33;;;;;;;4.30;1.30;;;8.90;85.10;;;;;;4934207;28;82958;-76
2021/01/21 03:51:59;;;;;;;6.18;1.25;;;8.90;85.10;;;;;;4949289;28;79895;-73
2021/01/21 03:54:25;;;;;;;7.35;1.65;;;8.90;85.20;;;;;;4933361;28;80740;-83
2021/01/21 03:56:51;;;;;;;6.10;1.80;;;8.90;85.40;;;;;;4932481;28;81327;-80
2021/01/21 03:59:16;;;;;;;7.68;1.25;;;8.90;85.40;;;;;;4950903;28;81098;-69
2021/01/21 04:01:42;;;;;;;7.13;1.48;;;8.90;85.40;;;;;;4932543;28;80870;-69
2021/01/21 04:04:08;;;;;;;5.03;1.42;;;8.90;85.50;;;;;;4932876;28;80208;-68
2021/01/21 04:06:33;;;;;;;4.15;1.33;;;8.90;85.70;;;;;;4932833;28;82725;-67
2021/01/21 04:08:59;;;;;;;7.78;1.63;;;8.90;85.90;;;;;;4950441;28;80705;-68
2021/01/21 04:11:26;;;;;;;6.43;1.10;;;8.90;86.10;;;;;;4950489;28;80716;-79
2021/01/21 04:13:52;;;;;;;6.38;1.30;;;8.90;86.10;;;;;;4950158;28;80057;-74
2021/01/21 04:16:17;;;;;;;3.13;1.17;;;8.90;86.30;;;;;;4932763;28;81803;-71
2021/01/21 04:18:43;;;;;;;3.83;1.20;;;8.90;86.10;;;;;;4950646;28;80315;-65
2021/01/21 04:21:09;;;;;;;8.00;2.17;;;8.90;86.10;;;;;;4932468;28;82675;-67
2021/01/21 04:23:35;;;;;;;3.83;1.33;;;8.80;86.10;;;;;;4950548;28;80907;-75
2021/01/21 04:26:02;;;;;;;5.85;1.80;;;8.70;86.30;;;;;;4950286;28;80072;-76
2021/01/21 04:28:27;;;;;;;4.38;1.75;;;8.70;86.50;;;;;;4932298;28;81784;-72
2021/01/21 04:30:53;;;;;;;8.20;1.50;;;8.70;86.50;;;;;;4950385;28;80104;-75
2021/01/21 04:33:19;;;;;;;5.82;1.73;;;8.70;86.50;;;;;;4950404;28;80944;-77
2021/01/21 04:35:45;;;;;;;4.85;1.40;;;8.80;86.50;;;;;;4932846;28;81304;-79
2021/01/21 04:38:10;;;;;;;5.93;1.63;;;8.80;86.50;;;;;;4932766;28;81121;-75
2021/01/21 04:40:36;;;;;;;7.13;1.90;;;8.80;86.40;;;;;;4950259;28;80122;-75
2021/01/21 04:43:02;;;;;;;5.35;1.20;;;8.80;86.50;;;;;;4950366;28;80608;-78
2021/01/21 04:45:28;;;;;;;9.60;1.90;;;8.80;86.30;;;;;;4932369;28;79947;-77
2021/01/21 04:47:55;;;;;;;6.32;1.70;;;8.70;86.30;;;;;;4932109;28;82930;-79
2021/01/21 04:50:21;;;;;;;4.10;1.55;;;8.60;86.60;;;;;;4932147;28;81207;-75
2021/01/21 04:52:50;;;;;;;10.05;1.98;;;8.60;86.70;;;;;;4932101;28;81230;-82
2021/01/21 04:55:22;;;;;;;7.53;1.85;;;8.70;86.80;;;;;;4948567;28;80240;-80
2021/01/21 04:57:55;;;;;;;5.70;2.55;;;8.80;86.80;;;;;;4950052;28;81104;-75
2021/01/21 05:00:22;;;;;;;6.15;1.83;;;8.70;86.70;;;;;;4931838;28;80013;-76
2021/01/21 05:02:49;;;;;;;4.97;1.73;;;8.80;86.70;;;;;;4932192;28;80028;-75
2021/01/21 05:05:16;;;;;;;7.25;2.10;;;8.80;86.70;;;;;;4949862;28;79980;-66
2021/01/21 05:07:42;;;;;;;6.68;2.05;;;8.90;86.60;;;;;;4950176;28;79808;-65
2021/01/21 05:10:12;;;;;;;5.72;1.60;;;8.90;86.50;;;;;;4950170;28;80655;-66
2021/01/21 05:12:38;;;;;;;5.82;1.40;;;8.90;86.50;;;;;;4917993;28;80667;-66
2021/01/21 05:15:05;;;;;;;6.90;1.80;;;8.90;86.60;;;;;;4950440;28;80269;-67
2021/01/21 05:17:32;;;;;;;4.70;1.98;;;8.90;86.50;;;;;;4931864;28;80691;-70
2021/01/21 05:20:00;;;;;;;6.40;1.90;;;9.00;86.40;;;;;;4932162;28;83059;-73
2021/01/21 05:22:26;;;;;;;5.82;2.45;;;9.00;86.40;;;;;;4950024;28;81227;-74
2021/01/21 05:24:52;;;;;;;9.10;2.22;;;9.00;86.50;;;;;;4949777;28;80357;-69
2021/01/21 05:27:20;;;;;;;6.50;2.20;;;9.00;86.40;;;;;;4947785;28;81169;-67
2021/01/21 05:29:47;;;;;;;8.57;2.35;;;9.10;86.60;;;;;;4931776;28;83114;-77
2021/01/21 05:32:17;;;;;;;8.18;2.22;;;9.00;86.60;;;;;;4949537;28;80517;-68
2021/01/21 05:34:45;;;;;;;7.22;2.13;;;9.00;86.50;;;;;;4949108;28;80788;-63
2021/01/21 05:37:12;;;;;;;6.57;2.83;;;9.00;86.50;;;;;;4932169;28;83182;-64
2021/01/21 05:39:46;;;;;;;7.30;2.45;;;9.10;86.50;;;;;;4931226;28;82661;-75
2021/01/21 05:42:12;;;;;;;9.70;2.50;;;9.10;86.50;;;;;;4949466;28;80896;-71
2021/01/21 05:44:39;;;;;;;5.32;2.35;;;9.10;86.50;;;;;;4949596;28;80003;-73
2021/01/21 05:47:06;;;;;;;5.80;2.38;;;9.10;86.50;;;;;;4947313;28;79975;-70
2021/01/21 05:49:33;;;;;;;7.38;2.63;;;9.10;86.40;;;;;;4934622;28;79916;-78
2021/01/21 05:51:59;;;;;;;10.45;2.60;;;9.00;86.40;;;;;;4952658;28;79825;-85
2021/01/21 05:54:27;;;;;;;5.43;2.67;;;9.00;86.50;;;;;;4935938;28;79883;-76
2021/01/21 05:56:58;;;;;;;6.07;2.45;;;9.00;86.60;;;;;;4931412;28;84151;-67
2021/01/21 05:59:25;;;;;;;8.07;2.53;;;9.00;86.60;;;;;;4949431;28;80784;-85
2021/01/21 06:01:56;;;;;;;8.02;2.28;;;9.00;86.50;;;;;;4931894;28;80731;-77
2021/01/21 06:04:28;;;;;;;5.82;2.50;;;9.10;86.50;;;;;;4931501;28;80728;-68
2021/01/21 06:06:54;;;;;;;8.27;2.03;;;9.10;86.50;;;;;;4948779;28;80528;-68
2021/01/21 06:09:30;;;;;;;6.25;1.90;;;9.10;86.50;;;;;;4949137;28;80227;-73
2021/01/21 06:12:01;;;;;;;7.70;2.70;;;9.10;86.40;;;;;;4930467;28;84199;-62
2021/01/21 06:14:27;;;;;;;5.07;1.55;;;9.10;86.40;;;;;;4949489;28;80350;-71
2021/01/21 06:16:53;;;;;;;10.25;2.72;;;9.20;86.30;;;;;;4949087;28;80519;-68
2021/01/21 06:19:20;;;;;;;6.53;3.13;;;9.20;86.30;;;;;;4930824;28;80540;-69
2021/01/21 06:21:56;;;;;;;11.52;3.85;;;9.10;86.20;;;;;;4930611;28;82855;-62
2021/01/21 06:24:29;;;;;;;14.05;2.35;;;9.10;86.50;;;;;;4960967;28;80940;-64
2021/01/21 06:26:56;;;;;;;9.13;2.90;;;8.90;86.50;;;;;;4938321;28;81840;-62
2021/01/21 06:29:26;;;;;;;7.25;2.15;;;8.90;86.60;;;;;;4932934;28;84375;-61
2021/01/21 06:31:57;;;;;;;8.50;2.72;;;8.80;86.80;;;;;;4933585;28;81899;-62
2021/01/21 06:34:35;;;;;;;7.45;2.47;;;8.80;86.80;;;;;;4933693;28;80902;-62
2021/01/21 06:37:04;;;;;;;4.82;2.13;;;8.70;87.00;;;;;;4950888;28;81247;-62
2021/01/21 06:39:53;;;;;;;8.13;2.20;;;8.70;87.10;;;;;;4933852;28;82076;-64
2021/01/21 06:42:29;;;;;;;7.13;2.40;;;8.60;87.10;;;;;;4933272;28;82768;-61
2021/01/21 06:44:56;;;;;;;5.95;2.17;;;8.60;87.40;;;;;;4933255;28;81425;-64
2021/01/21 06:47:24;;;;;;;6.10;2.05;;;8.60;87.30;;;;;;4951329;28;80515;-61
2021/01/21 06:49:55;;;;;;;9.88;2.10;;;8.60;87.20;;;;;;4950795;28;81349;-63
2021/01/21 06:52:25;;;;;;;6.28;1.90;;;8.70;87.30;;;;;;4933298;28;81005;-64
2021/01/21 06:54:51;;;;;;;10.98;2.58;;;8.80;87.30;;;;;;4930699;28;82696;-66
2021/01/21 06:57:44;;;;;;;9.18;2.45;;;8.90;87.20;;;;;;4934642;28;82928;-61
2021/01/21 07:00:43;;;;;;;9.00;3.35;;;8.90;86.80;;;;;;4933204;28;81309;-65
2021/01/21 07:03:30;;;;;;;9.00;2.33;;;9.00;86.70;;;;;;4953452;28;82163;-61
2021/01/21 07:05:58;;;;;;;10.23;2.97;;;9.00;86.60;;;;;;4953580;28;81907;-60
2021/01/21 07:08:24;;;;;;;9.57;3.28;;;9.00;86.60;;;;;;4936149;28;82962;-64
2021/01/21 07:10:51;;;;;;;5.88;2.42;;;9.10;86.50;;;;;;4954349;28;80726;-66
2021/01/21 07:13:21;;;;;;;7.47;2.72;;;9.10;86.40;;;;;;4946949;28;82674;-62
2021/01/21 07:15:55;;;;;;;6.20;2.10;;;9.10;86.50;;;;;;4954502;28;81088;-69
2021/01/21 07:18:32;;;;;;;11.30;2.42;;;9.20;86.50;;;;;;4933302;28;83743;-67
2021/01/21 07:21:06;;;;;;;11.05;2.60;;;9.20;86.40;;;;;;4952595;28;81504;-64
2021/01/21 07:23:45;;;;;;;4.85;1.80;;;9.20;86.30;;;;;;4935802;28;82980;-69
2021/01/21 07:26:42;;;;;;;7.80;2.40;;;9.20;86.30;;;;;;4954632;28;81599;-62
2021/01/21 07:29:15;;;;;;;5.43;1.70;;;9.20;86.30;;;;;;4935670;28;82282;-62
2021/01/21 07:32:04;;;;;;;7.53;2.27;;;9.20;86.40;;;;;;4935752;28;83668;-64
2021/01/21 07:34:44;;;;;;;5.07;1.75;;;9.20;86.30;;;;;;4934868;28;81579;-60
2021/01/21 07:37:10;;;;;;;8.95;1.80;;;9.20;86.30;;;;;;4935739;28;82946;-60
2021/01/21 07:39:53;;;;;;;6.63;1.75;;;9.30;86.30;;;;;;4935848;28;81769;-61
2021/01/21 07:42:40;;;;;;;6.53;1.58;;;9.30;86.00;;;;;;4952492;28;81876;-60
2021/01/21 07:45:18;;;;;;;6.72;1.35;;;9.30;86.00;;;;;;4952212;28;82544;-60
2021/01/21 07:47:46;;;;;;;5.85;1.90;;;9.30;85.80;;;;;;4952789;28;81888;-63
2021/01/21 07:50:30;;;;;;;7.53;2.10;;;9.40;85.60;;;;;;4934489;28;81590;-61
2021/01/21 07:52:57;;;;;;;4.45;1.55;;;9.40;85.50;;;;;;4934935;28;81581;-61
2021/01/21 07:55:37;;;;;;;6.15;1.48;;;9.50;85.30;;;;;;4934685;28;81456;-60
2021/01/21 07:58:23;;;;;;;5.00;1.50;;;9.50;85.10;;;;;;4940579;28;82156;-61
2021/01/21 08:00:56;;;;;;;6.93;1.77;;;9.50;85.00;;;;;;4926863;28;81846;-61
2021/01/21 08:03:32;;;;;;;4.22;1.58;;;9.50;84.90;;;;;;4922832;28;83555;-61
2021/01/21 08:06:04;;;;;;;6.35;1.75;;;9.50;84.80;;;;;;4924690;28;82626;-61
2021/01/21 08:08:30;;;;;;;4.13;1.45;;;9.50;84.80;;;;;;4928940;28;82437;-60
2021/01/21 08:11:02;;;;;;;6.43;1.88;;;9.50;84.80;;;;;;4932275;28;81677;-61
2021/01/21 08:13:28;;;;;;;4.17;1.80;;;9.50;84.80;;;;;;4944928;28;81915;-61
2021/01/21 08:15:54;;;;;;;5.20;1.60;;;9.50;84.70;;;;;;4947033;28;80830;-61
2021/01/21 08:18:20;;;;;;;6.25;2.13;;;9.50;84.60;;;;;;4926890;28;81698;-61
2021/01/21 08:20:46;;;;;;;6.22;2.10;;;9.60;84.50;;;;;;4924191;28;83547;-61
2021/01/21 08:23:13;;;;;;;4.20;1.90;;;9.70;84.20;;;;;;4930877;28;81388;-60
2021/01/21 08:25:50;;;;;;;4.07;1.58;;;9.80;83.90;;;;;;4943905;28;82372;-60
2021/01/21 08:28:21;;;;;;;5.80;2.40;;;9.80;83.80;;;;;;4943906;28;82232;-63
2021/01/21 08:30:49;;;;;;;9.77;2.45;;;9.90;83.60;;;;;;4930230;28;82881;-63
2021/01/21 08:33:18;;;;;;;5.70;2.15;;;9.90;83.30;;;;;;4931600;28;81701;-62
2021/01/21 08:35:56;;;;;;;5.20;1.55;;;9.90;83.20;;;;;;4949635;28;81095;-63
2021/01/21 08:38:24;;;;;;;6.18;2.20;;;9.90;83.10;;;;;;4918357;28;83084;-62
2021/01/21 08:40:52;;;;;;;6.15;2.03;;;9.90;82.90;;;;;;4938062;28;81246;-63
2021/01/21 08:43:20;;;;;;;5.15;1.70;;;9.90;82.80;;;;;;4954111;28;82229;-62
2021/01/21 08:45:47;;;;;;;5.53;1.98;;;10.00;82.60;;;;;;4927172;28;82672;-63
2021/01/21 08:48:29;;;;;;;5.78;2.05;;;10.00;82.50;;;;;;4943792;28;80704;-62
2021/01/21 08:50:56;;;;;;;6.23;2.03;;;9.90;82.30;;;;;;4941705;28;81404;-63
2021/01/21 08:53:23;;;;;;;4.10;1.40;;;9.90;82.40;;;;;;4937520;28;81185;-63
2021/01/21 08:55:52;;;;;;;5.35;1.83;;;10.00;82.20;;;;;;4951406;28;81242;-63
2021/01/21 08:58:28;;;;;;;4.97;1.73;;;10.00;81.90;;;;;;4955281;28;81396;-62
2021/01/21 09:00:59;;;;;;;4.10;1.27;;;10.10;81.90;;;;;;4937302;28;83070;-61
2021/01/21 09:03:48;;;;;;;5.82;1.20;;;10.10;81.60;;;;;;4936975;28;82615;-62
2021/01/21 09:06:19;;;;;;;4.78;1.33;;;10.20;81.40;;;;;;4937607;28;81404;-62
2021/01/21 09:08:54;;;;;;;2.75;0.93;;;10.30;81.00;;;;;;4955453;28;82114;-63
2021/01/21 09:11:28;;;;;;;5.03;1.20;;;10.30;80.90;;;;;;4936749;28;83645;-62
2021/01/21 09:13:55;;;;;;;7.25;1.95;;;10.40;80.60;;;;;;4954956;28;82161;-62
2021/01/21 09:16:42;;;;;;;2.90;0.82;;;10.40;80.50;;;;;;4953877;28;81491;-62
2021/01/21 09:19:09;;;;;;;8.38;1.63;;;10.50;80.40;;;;;;4936371;28;80606;-61
2021/01/21 09:21:35;;;;;;;3.78;1.33;;;10.50;80.40;;;;;;4953982;28;81435;-63
2021/01/21 09:24:09;;;;;;;5.05;1.85;;;10.50;80.30;;;;;;4935925;28;82717;-62
2021/01/21 09:26:35;;;;;;;3.95;1.30;;;10.70;80.00;;;;;;4936546;28;82338;-61
2021/01/21 09:29:02;;;;;;;2.53;1.42;;;10.90;79.40;;;;;;4952497;28;81862;-61
2021/01/21 09:31:30;;;;;;;6.18;1.23;;;11.00;78.50;;;;;;4936840;28;82302;-61
2021/01/21 09:33:56;;;;;;;4.75;1.83;;;11.10;78.40;;;;;;4936966;28;81939;-61
2021/01/21 09:36:27;;;;;;;6.00;1.25;;;11.10;78.20;;;;;;4954954;28;80678;-62
2021/01/21 09:38:54;;;;;;;3.72;1.60;;;11.10;78.30;;;;;;4936616;28;82623;-63
2021/01/21 09:41:20;;;;;;;4.10;1.20;;;11.00;78.50;;;;;;4935694;28;82896;-63
2021/01/21 09:43:46;;;;;;;4.20;1.48;;;11.00;78.70;;;;;;4954848;28;80981;-62
2021/01/21 09:46:11;;;;;;;3.50;1.60;;;11.00;78.90;;;;;;4936914;28;83820;-62
2021/01/21 09:48:37;;;;;;;6.40;1.80;;;10.90;79.10;;;;;;4954995;28;80812;-62
2021/01/21 09:51:03;;;;;;;4.10;1.55;;;10.90;80.00;;;;;;4954361;28;81800;-62
2021/01/21 09:53:29;;;;;;;2.60;1.27;;;10.70;80.80;;;;;;4936063;28;83317;-62
2021/01/21 09:55:57;;;;;;;4.25;1.35;;;10.60;81.40;;;;;;4936311;28;82473;-61
2021/01/21 09:58:26;;;;;;;7.22;1.30;;;10.50;82.00;;;;;;4936582;28;81495;-61
2021/01/21 10:00:52;;;;;;;5.07;1.55;;;10.40;82.50;;;;;;4955426;28;81567;-62
2021/01/21 10:03:18;;;;;;;3.58;1.27;;;10.20;83.20;;;;;;4954070;28;81552;-62
2021/01/21 10:05:46;;;;;;;3.83;1.55;;;10.20;83.30;;;;;;4936642;28;80530;-62
2021/01/21 10:08:12;;;;;;;3.97;1.23;;;10.30;83.20;;;;;;4936398;28;81928;-60
2021/01/21 10:10:38;;;;;;;8.13;2.00;;;10.30;83.10;;;;;;4936634;28;81260;-59
2021/01/21 10:13:04;;;;;;;4.78;1.60;;;10.30;82.80;;;;;;4936600;28;82796;-62
2021/01/21 10:15:29;;;;;;;7.60;1.60;;;10.30;82.70;;;;;;4933505;28;82987;-62
2021/01/21 10:17:55;;;;;;;11.90;2.45;;;10.40;82.50;;;;;;4953058;28;81808;-62
2021/01/21 10:20:21;;;;;;;7.15;2.15;;;10.40;82.10;;;;;;4936123;28;83457;-62
2021/01/21 10:22:47;;;;;;;5.63;2.10;;;10.40;81.90;;;;;;4935737;28;81862;-62
2021/01/21 10:25:13;;;;;;;5.30;1.63;;;10.50;81.80;;;;;;4935723;28;82036;-62
2021/01/21 10:27:39;;;;;;;9.55;1.55;;;10.60;81.40;;;;;;4954406;28;81782;-62
2021/01/21 10:30:06;;;;;;;8.25;1.30;;;10.80;81.00;;;;;;4936172;28;84418;-61
2021/01/21 10:32:33;;;;;;;7.63;1.10;;;10.90;80.50;;;;;;4954043;28;81399;-61
2021/01/21 10:34:58;;;;;;;7.03;1.63;;;10.90;80.30;;;;;;4935456;28;82431;-62
2021/01/21 10:37:24;;;;;;;1.98;0.60;;;10.90;79.90;;;;;;4935100;28;83125;-61
2021/01/21 10:39:50;;;;;;;5.32;1.08;;;10.90;79.70;;;;;;4954188;28;81835;-62
2021/01/21 10:42:16;;;;;;;2.78;0.98;;;11.00;79.60;;;;;;4954043;28;80234;-61
2021/01/21 10:44:43;;;;;;;6.32;0.93;;;11.10;79.10;;;;;;4935622;28;82619;-63
2021/01/21 10:47:08;;;;;;;4.47;1.10;;;11.10;79.10;;;;;;4936706;28;81418;-60
2021/01/21 10:49:34;;;;;;;2.17;0.55;;;11.10;78.70;;;;;;4935612;28;82503;-62
2021/01/21 10:52:00;;;;;;;3.75;1.13;;;11.10;78.60;;;;;;4953637;28;80662;-61
2021/01/21 10:54:26;;;;;;;9.40;1.20;;;11.30;78.30;;;;;;4935586;28;81559;-61
2021/01/21 10:56:55;;;;;;;2.80;1.00;;;11.50;77.80;;;;;;4953427;28;81450;-61
2021/01/21 10:59:21;;;;;;;2.70;0.55;;;11.60;76.90;;;;;;4954122;28;81761;-61
2021/01/21 11:01:47;;;;;;;3.35;0.95;;;11.60;76.60;;;;;;4953185;28;81647;-61
2021/01/21 11:04:13;;;;;;;5.28;1.02;;;11.50;76.70;;;;;;4934369;28;81650;-61
2021/01/21 11:06:39;;;;;;;4.95;1.23;;;11.50;76.80;;;;;;4954384;28;81612;-62
2021/01/21 11:09:05;;;;;;;2.83;0.47;;;11.60;76.50;;;;;;4935410;28;83109;-63
2021/01/21 11:11:31;;;;;;;5.10;1.15;;;11.70;76.00;;;;;;4953881;28;81787;-62
2021/01/21 11:13:57;;;;;;;3.92;1.15;;;11.90;75.60;;;;;;4934397;28;81670;-63
2021/01/21 11:16:23;;;;;;;2.58;0.60;;;12.00;75.00;;;;;;4953419;28;81715;-65
2021/01/21 11:18:48;;;;;;;5.13;1.35;;;12.10;74.30;;;;;;4932664;28;82938;-65
2021/01/21 11:21:15;;;;;;;4.43;0.80;;;12.40;74.10;;;;;;4933301;28;83171;-65
2021/01/21 11:23:41;;;;;;;1.92;0.50;;;12.90;72.70;;;;;;4933493;28;81465;-64
2021/01/21 11:26:06;;;;;;;3.55;0.70;;;13.10;71.30;;;;;;4934292;28;82306;-62
2021/01/21 11:28:32;;;;;;;1.98;0.68;;;13.40;70.60;;;;;;4953072;28;81762;-64
2021/01/21 11:30:58;;;;;;;4.97;0.82;;;13.40;70.00;;;;;;4934711;28;81722;-65
2021/01/21 11:33:23;;;;;;;2.95;0.75;;;13.20;70.60;;;;;;4935707;28;82269;-64
2021/01/21 11:35:50;;;;;;;3.78;0.80;;;13.00;71.30;;;;;;4934657;28;81969;-63
2021/01/21 11:38:16;;;;;;;4.47;0.63;;;12.80;71.90;;;;;;4934716;28;83277;-64
2021/01/21 11:40:43;;;;;;;3.15;0.60;;;12.40;72.80;;;;;;4935470;28;82163;-63
2021/01/21 11:43:10;;;;;;;1.95;0.60;;;12.20;73.70;;;;;;4935078;28;83966;-63
2021/01/21 11:45:36;;;;;;;2.70;0.63;;;12.00;74.50;;;;;;4933971;28;82643;-64
2021/01/21 11:48:04;;;;;;;2.67;0.40;;;11.90;75.00;;;;;;4935533;28;80785;-65
2021/01/21 11:50:30;;;;;;;2.65;0.38;;;11.90;75.10;;;;;;4935441;28;81636;-64
2021/01/21 11:52:56;;;;;;;1.70;0.43;;;11.90;75.30;;;;;;4935091;28;82847;-65
2021/01/21 11:55:23;;;;;;;2.45;0.57;;;11.90;75.60;;;;;;4952913;28;81612;-64
2021/01/21 11:57:49;;;;;;;0.77;0.32;;;11.90;75.90;;;;;;4935373;28;81933;-65
2021/01/21 12:00:16;;;;;;;1.70;0.40;;;11.90;76.10;;;;;;4934800;28;82551;-64
2021/01/21 12:02:42;;;;;;;1.08;0.38;;;11.90;76.20;;;;;;4952767;28;80684;-65
2021/01/21 12:05:09;;;;;;;3.15;0.60;;;11.80;76.40;;;;;;4956023;28;81597;-64
2021/01/21 12:07:35;;;;;;;1.40;0.30;;;11.90;76.40;;;;;;4938367;28;82792;-65
2021/01/21 12:10:02;;;;;;;1.80;0.60;;;11.90;76.10;;;;;;4956467;28;81522;-63
2021/01/21 12:12:28;;;;;;;2.80;1.30;;;11.90;75.90;;;;;;4922534;28;81750;-65
2021/01/21 12:14:53;;;;;;;3.22;0.70;;;12.00;75.50;;;;;;4938460;28;80914;-65
2021/01/21 12:17:19;;;;;;;3.00;0.50;;;12.10;75.10;;;;;;4938214;28;82355;-65
2021/01/21 12:19:45;;;;;;;3.92;0.50;;;12.20;74.30;;;;;;4938069;28;81529;-64
2021/01/21 12:22:12;;;;;;;5.10;0.65;;;12.30;73.90;;;;;;4937635;28;83178;-64
2021/01/21 12:24:38;;;;;;;3.08;0.65;;;12.60;73.10;;;;;;4938159;28;83224;-65
2021/01/21 12:27:04;;;;;;;4.63;0.73;;;12.60;72.50;;;;;;4936804;28;81580;-67
2021/01/21 12:29:29;;;;;;;5.35;0.68;;;12.90;72.20;;;;;;4936838;28;83486;-66
2021/01/21 12:31:56;;;;;;;6.95;1.15;;;13.20;71.20;;;;;;4938175;28;81119;-65
2021/01/21 12:34:23;;;;;;;5.43;0.77;;;13.30;70.00;;;;;;4936374;28;82138;-63
2021/01/21 12:36:48;;;;;;;4.57;1.13;;;13.40;69.50;;;;;;4935778;28;83172;-64
2021/01/21 12:39:15;;;;;;;7.60;0.73;;;13.60;68.50;;;;;;4954471;28;82640;-66
2021/01/21 12:41:41;;;;;;;4.72;1.02;;;13.70;68.00;;;;;;4956059;28;82145;-66
2021/01/21 12:44:07;;;;;;;5.40;1.00;;;14.00;67.10;;;;;;4937920;28;81686;-64
2021/01/21 12:46:33;;;;;;;2.25;0.47;;;14.00;66.50;;;;;;4955417;28;81711;-63
2021/01/21 12:48:58;;;;;;;2.47;0.65;;;13.90;66.80;;;;;;4955610;28;82069;-65
2021/01/21 12:51:24;;;;;;;2.40;0.70;;;13.90;67.20;;;;;;4955374;28;81329;-65
2021/01/21 12:53:50;;;;;;;4.25;0.68;;;13.90;67.50;;;;;;4936751;28;80669;-66
2021/01/21 12:56:17;;;;;;;3.88;0.68;;;13.70;67.70;;;;;;4937221;28;82323;-65
2021/01/21 12:58:42;;;;;;;5.15;0.85;;;13.80;68.00;;;;;;4955705;28;81581;-65
2021/01/21 13:01:09;;;;;;;3.38;0.70;;;13.60;68.10;;;;;;4955700;28;82000;-66